createdAt,value
2018-08-13T00:02:11.406Z,20.66
2018-08-13T00:05:14.678Z,20.94
2018-08-13T00:08:17.845Z,20.85
2018-08-13T00:11:20.965Z,20.50
2018-08-13T00:14:24.086Z,20.58
2018-08-13T00:17:33.791Z,20.53
2018-08-13T00:20:37.185Z,20.44
2018-08-13T00:23:40.260Z,20.48
2018-08-13T00:26:43.393Z,20.57
2018-08-13T00:29:46.682Z,20.60
2018-08-13T00:32:49.857Z,20.48
2018-08-13T00:35:52.990Z,20.40
2018-08-13T00:38:56.149Z,20.54
2018-08-13T00:41:59.266Z,20.30
2018-08-13T00:45:02.473Z,20.50
2018-08-13T00:48:05.811Z,20.19
2018-08-13T00:51:19.182Z,20.54
2018-08-13T00:54:22.270Z,20.68
2018-08-13T00:57:25.412Z,20.98
2018-08-13T01:00:28.673Z,20.74
2018-08-13T01:03:31.878Z,21.00
2018-08-13T01:06:34.990Z,20.97
2018-08-13T01:09:38.111Z,21.00
2018-08-13T01:12:41.385Z,21.01
2018-08-13T01:15:44.564Z,21.31
2018-08-13T01:18:47.738Z,21.11
2018-08-13T01:21:50.958Z,21.15
2018-08-13T01:24:54.069Z,21.18
2018-08-13T01:27:57.349Z,21.12
2018-08-13T01:31:00.450Z,21.14
2018-08-13T01:34:03.575Z,21.01
2018-08-13T01:37:06.935Z,20.92
2018-08-13T01:40:11.151Z,21.04
2018-08-13T01:43:14.211Z,20.93
2018-08-13T01:46:17.334Z,21.10
2018-08-13T01:49:20.454Z,20.92
2018-08-13T01:52:23.642Z,21.07
2018-08-13T01:55:26.800Z,20.82
2018-08-13T01:58:29.909Z,20.88
2018-08-13T02:01:33.206Z,20.84
2018-08-13T02:04:36.190Z,21.06
2018-08-13T02:07:39.363Z,21.23
2018-08-13T02:10:42.478Z,21.21
2018-08-13T02:16:48.156Z,21.23
2018-08-13T02:19:52.021Z,20.97
2018-08-13T02:22:55.115Z,21.00
2018-08-13T02:25:58.211Z,20.93
2018-08-13T02:29:01.349Z,20.95
2018-08-13T02:32:04.557Z,20.96
2018-08-13T02:35:08.478Z,21.00
2018-08-13T02:38:11.600Z,21.09
2018-08-13T02:41:14.771Z,21.07
2018-08-13T02:44:17.920Z,21.35
2018-08-13T02:47:21.005Z,21.16
2018-08-13T02:50:24.152Z,21.08
2018-08-13T02:53:27.219Z,21.00
2018-08-13T02:56:30.415Z,20.87
2018-08-13T02:59:33.594Z,20.95
2018-08-13T03:02:37.222Z,20.98
2018-08-13T03:05:40.280Z,20.90
2018-08-13T03:08:43.433Z,20.99
2018-08-13T03:11:46.581Z,20.90
2018-08-13T03:14:49.720Z,20.91
2018-08-13T03:17:52.835Z,20.91
2018-08-13T03:20:56.130Z,20.92
2018-08-13T03:23:59.254Z,21.00
2018-08-13T03:27:02.415Z,20.91
2018-08-13T03:30:11.349Z,20.91
2018-08-13T03:33:14.464Z,20.85
2018-08-13T03:36:17.629Z,20.89
2018-08-13T03:39:20.737Z,20.80
2018-08-13T03:42:23.891Z,20.89
2018-08-13T03:45:27.093Z,20.79
2018-08-13T03:48:30.218Z,20.60
2018-08-13T03:51:33.338Z,20.68
2018-08-13T03:54:36.521Z,20.66
2018-08-13T03:57:40.490Z,20.13
2018-08-13T04:00:43.626Z,20.58
2018-08-13T04:03:46.786Z,20.64
2018-08-13T04:06:49.897Z,20.78
2018-08-13T04:09:53.038Z,20.71
2018-08-13T04:12:56.235Z,20.77
2018-08-13T04:15:59.261Z,20.88
2018-08-13T04:19:02.390Z,20.76
2018-08-13T04:22:05.718Z,20.81
2018-08-13T04:25:09.765Z,20.94
2018-08-13T04:28:12.892Z,20.87
2018-08-13T04:31:16.002Z,21.22
2018-08-13T04:34:19.434Z,21.14
2018-08-13T04:37:22.536Z,21.22
2018-08-13T04:40:29.344Z,21.28
2018-08-13T04:43:32.500Z,21.59
2018-08-13T04:46:35.688Z,21.71
2018-08-13T04:49:38.764Z,21.21
2018-08-13T04:52:41.916Z,21.69
2018-08-13T04:55:44.990Z,21.65
2018-08-13T04:58:48.141Z,21.62
2018-08-13T05:01:51.243Z,21.60
2018-08-13T05:04:54.478Z,21.63
2018-08-13T05:07:57.557Z,21.56
2018-08-13T05:11:00.685Z,21.59
2018-08-13T05:14:03.842Z,21.44
2018-08-13T05:17:07.014Z,21.44
2018-08-13T05:20:10.247Z,21.29
2018-08-13T05:23:13.361Z,21.06
2018-08-13T05:26:16.585Z,21.24
2018-08-13T05:29:19.651Z,21.23
2018-08-13T05:32:22.851Z,21.31
2018-08-13T05:35:26.061Z,21.36
2018-08-13T05:38:29.182Z,21.25
2018-08-13T05:41:32.231Z,21.17
2018-08-13T05:44:42.036Z,21.17
2018-08-13T05:47:45.181Z,21.23
2018-08-13T05:50:48.279Z,21.23
2018-08-13T05:53:51.333Z,21.16
2018-08-13T05:59:57.019Z,21.14
2018-08-13T06:03:00.194Z,21.15
2018-08-13T06:06:03.301Z,21.08
2018-08-13T06:09:10.766Z,21.21
2018-08-13T06:12:13.958Z,20.98
2018-08-13T06:15:17.116Z,21.00
2018-08-13T06:18:20.277Z,21.06
2018-08-13T06:21:23.428Z,21.01
2018-08-13T06:24:26.627Z,21.13
2018-08-13T06:27:29.757Z,20.92
2018-08-13T06:30:32.923Z,20.92
2018-08-13T06:33:35.984Z,20.91
2018-08-13T06:36:39.082Z,20.68
2018-08-13T06:39:42.112Z,20.65
2018-08-13T06:42:45.265Z,20.55
2018-08-13T06:45:48.226Z,20.30
2018-08-13T06:48:51.199Z,20.18
2018-08-13T06:51:54.156Z,20.14
2018-08-13T06:54:57.162Z,20.39
2018-08-13T06:58:00.293Z,20.62
2018-08-13T07:01:03.807Z,20.57
2018-08-13T07:04:06.828Z,20.31
2018-08-13T07:07:09.869Z,20.46
2018-08-13T07:10:13.952Z,20.52
2018-08-13T07:13:16.948Z,20.27
2018-08-13T07:16:19.936Z,20.35
2018-08-13T07:19:22.972Z,20.67
2018-08-13T07:22:25.977Z,20.42
2018-08-13T07:25:29.051Z,20.51
2018-08-13T07:28:32.083Z,20.53
2018-08-13T07:31:35.237Z,20.53
2018-08-13T07:34:38.427Z,20.49
2018-08-13T07:37:41.656Z,20.56
2018-08-13T07:40:44.675Z,20.61
2018-08-13T07:43:47.666Z,20.83
2018-08-13T07:46:50.676Z,20.95
2018-08-13T07:49:53.824Z,20.92
2018-08-13T07:52:56.868Z,20.90
2018-08-13T07:55:59.989Z,20.82
2018-08-13T07:59:03.026Z,20.76
2018-08-13T08:02:06.215Z,20.76
2018-08-13T08:05:09.230Z,20.77
2018-08-13T08:08:12.606Z,20.61
2018-08-13T08:11:15.725Z,20.42
2018-08-13T08:14:18.861Z,20.37
2018-08-13T08:17:21.981Z,20.44
2018-08-13T08:20:25.043Z,20.46
2018-08-13T08:23:28.074Z,20.45
2018-08-13T08:26:31.084Z,20.43
2018-08-13T08:29:34.184Z,20.55
2018-08-13T08:32:37.688Z,20.39
2018-08-13T08:35:40.712Z,20.47
2018-08-13T08:38:43.721Z,20.22
2018-08-13T08:41:46.733Z,20.44
2018-08-13T08:44:49.738Z,20.41
2018-08-13T08:47:53.601Z,20.23
2018-08-13T08:50:56.600Z,20.17
2018-08-13T08:53:59.686Z,20.29
2018-08-13T08:57:02.794Z,20.45
2018-08-13T09:00:10.565Z,20.49
2018-08-13T09:03:13.531Z,20.62
2018-08-13T09:06:16.494Z,20.63
2018-08-13T09:09:19.466Z,20.75
2018-08-13T09:12:22.402Z,20.87
2018-08-13T09:15:25.368Z,20.75
2018-08-13T09:18:45.404Z,20.82
2018-08-13T09:21:51.834Z,20.76
2018-08-13T09:25:12.234Z,20.78
2018-08-13T09:28:32.509Z,20.94
2018-08-13T09:32:20.031Z,21.07
2018-08-13T09:35:27.727Z,21.25
2018-08-13T09:38:30.801Z,21.16
2018-08-13T09:42:37.245Z,21.29
2018-08-13T09:45:40.303Z,21.44
2018-08-13T09:48:43.268Z,21.51
2018-08-13T09:51:46.271Z,21.48
2018-08-13T09:54:49.273Z,21.29
2018-08-13T09:57:52.326Z,21.51
2018-08-13T10:01:00.916Z,21.65
2018-08-13T10:04:04.013Z,21.49
2018-08-13T10:07:07.006Z,21.66
2018-08-13T10:10:10.801Z,21.66
2018-08-13T10:13:13.778Z,21.52
2018-08-13T10:16:16.805Z,21.67
2018-08-13T10:19:19.754Z,21.52
2018-08-13T10:22:22.854Z,21.69
2018-08-13T10:25:25.936Z,21.70
2018-08-13T10:28:29.062Z,21.68
2018-08-13T10:31:32.201Z,21.70
2018-08-13T10:34:35.245Z,21.77
2018-08-13T10:37:38.957Z,21.90
2018-08-13T10:40:42.092Z,21.87
2018-08-13T10:43:45.164Z,21.83
2018-08-13T10:46:48.195Z,21.79
2018-08-13T10:49:51.202Z,21.83
2018-08-13T10:52:54.261Z,22.17
2018-08-13T10:55:59.031Z,22.37
2018-08-13T10:59:02.088Z,22.60
2018-08-13T11:02:05.189Z,22.29
2018-08-13T11:05:10.081Z,22.29
2018-08-13T11:08:13.118Z,22.51
2018-08-13T11:11:16.105Z,22.37
2018-08-13T11:14:19.079Z,22.21
2018-08-13T11:17:22.128Z,22.27
2018-08-13T11:20:25.150Z,22.23
2018-08-13T11:23:29.063Z,21.92
2018-08-13T11:26:32.934Z,21.88
2018-08-13T11:29:36.362Z,21.79
2018-08-13T11:32:40.237Z,21.71
2018-08-13T11:35:44.049Z,21.71
2018-08-13T11:38:47.626Z,21.54
2018-08-13T11:41:50.888Z,21.49
2018-08-13T11:44:54.655Z,21.29
2018-08-13T11:47:58.094Z,21.27
2018-08-13T11:51:01.672Z,21.28
2018-08-13T11:54:04.879Z,21.35
2018-08-13T11:57:08.054Z,21.14
2018-08-13T12:00:12.106Z,21.29
2018-08-13T12:03:15.194Z,21.30
2018-08-13T12:06:18.360Z,21.40
2018-08-13T12:09:21.304Z,21.36
2018-08-13T12:12:24.291Z,21.80
2018-08-13T12:15:28.017Z,21.83
2018-08-13T12:18:31.584Z,21.66
2018-08-13T12:21:34.774Z,22.09
2018-08-13T12:24:44.398Z,22.21
2018-08-13T12:27:47.449Z,22.46
2018-08-13T12:30:51.942Z,22.30
2018-08-13T12:33:54.958Z,22.44
2018-08-13T12:37:03.610Z,22.12
2018-08-13T12:40:08.889Z,22.14
2018-08-13T12:43:11.998Z,21.97
2018-08-13T12:46:15.365Z,21.93
2018-08-13T12:49:18.605Z,21.82
2018-08-13T12:52:21.705Z,21.86
2018-08-13T12:55:24.776Z,21.68
2018-08-13T12:58:27.847Z,21.71
2018-08-13T13:01:31.345Z,21.67
2018-08-13T13:04:34.485Z,21.67
2018-08-13T13:07:38.211Z,21.54
2018-08-13T13:10:41.253Z,21.50
2018-08-13T13:13:44.405Z,21.42
2018-08-13T13:16:47.555Z,21.36
2018-08-13T13:19:50.559Z,21.33
2018-08-13T13:22:53.580Z,21.35
2018-08-13T13:25:56.592Z,21.25
2018-08-13T13:28:59.798Z,21.09
2018-08-13T13:32:02.957Z,21.14
2018-08-13T13:35:07.502Z,21.08
2018-08-13T13:38:10.730Z,20.93
2018-08-13T13:41:13.985Z,20.86
2018-08-13T13:44:17.162Z,20.79
2018-08-13T13:47:20.205Z,20.61
2018-08-13T13:50:23.581Z,20.50
2018-08-13T13:53:26.659Z,20.57
2018-08-13T13:56:29.590Z,20.64
2018-08-13T13:59:32.597Z,20.91
2018-08-13T14:02:35.574Z,21.17
2018-08-13T14:05:38.575Z,21.61
2018-08-13T14:08:41.473Z,22.07
2018-08-13T14:11:44.855Z,21.77
2018-08-13T14:14:47.891Z,22.09
2018-08-13T14:17:51.381Z,21.98
2018-08-13T14:20:54.358Z,22.33
2018-08-13T14:23:57.965Z,22.08
2018-08-13T14:27:01.042Z,21.81
2018-08-13T14:30:09.468Z,22.86
2018-08-13T14:33:12.554Z,22.68
2018-08-13T14:36:15.570Z,22.03
2018-08-13T14:39:18.603Z,21.92
2018-08-13T14:42:21.660Z,21.75
2018-08-13T14:45:24.772Z,21.25
2018-08-13T14:48:27.765Z,21.42
2018-08-13T14:51:31.137Z,21.40
2018-08-13T14:54:34.209Z,21.04
2018-08-13T14:57:37.386Z,20.35
2018-08-13T15:00:41.337Z,20.26
2018-08-13T15:03:44.432Z,20.10
2018-08-13T15:07:50.874Z,19.73
2018-08-13T15:10:53.913Z,19.93
2018-08-13T15:13:57.018Z,20.04
2018-08-13T15:17:00.259Z,19.94
2018-08-13T15:20:04.402Z,19.95
2018-08-13T15:23:07.419Z,20.29
2018-08-13T15:26:10.904Z,20.40
2018-08-13T15:29:14.005Z,20.81
2018-08-13T15:32:16.929Z,21.11
2018-08-13T15:35:19.928Z,21.02
2018-08-13T15:38:24.529Z,20.98
2018-08-13T15:41:31.931Z,21.23
2018-08-13T15:44:35.072Z,21.21
2018-08-13T15:47:38.744Z,21.02
2018-08-13T15:50:41.807Z,20.84
2018-08-13T15:53:44.841Z,20.68
2018-08-13T15:56:47.870Z,20.64
2018-08-13T15:59:50.902Z,20.77
2018-08-13T16:02:54.204Z,20.53
2018-08-13T16:05:57.184Z,20.43
2018-08-13T16:09:01.178Z,20.70
2018-08-13T16:12:04.971Z,20.69
2018-08-13T16:15:08.725Z,20.54
2018-08-13T16:18:11.741Z,20.49
2018-08-13T16:21:14.747Z,20.55
2018-08-13T16:24:17.779Z,20.67
2018-08-13T16:27:20.798Z,20.22
2018-08-13T16:30:28.278Z,20.51
2018-08-13T16:33:31.694Z,20.48
2018-08-13T16:36:35.391Z,20.19
2018-08-13T16:39:38.451Z,20.54
2018-08-13T16:42:42.113Z,20.45
2018-08-13T16:45:45.143Z,20.53
2018-08-13T16:48:48.257Z,20.35
2018-08-13T16:51:51.503Z,20.43
2018-08-13T16:54:54.694Z,20.70
2018-08-13T16:57:58.781Z,20.86
2018-08-13T17:01:01.897Z,20.83
2018-08-13T17:04:05.501Z,20.74
2018-08-13T17:07:08.474Z,20.94
2018-08-13T17:10:17.104Z,20.56
2018-08-13T17:13:20.265Z,20.51
2018-08-13T17:16:23.296Z,20.55
2018-08-13T17:19:26.494Z,20.62
2018-08-13T17:22:29.655Z,20.62
2018-08-13T17:25:32.798Z,20.65
2018-08-13T17:28:36.044Z,20.62
2018-08-13T17:31:39.371Z,20.39
2018-08-13T17:34:42.474Z,20.55
2018-08-13T17:37:45.817Z,20.56
2018-08-13T17:40:49.001Z,20.57
2018-08-13T17:43:52.032Z,20.63
2018-08-13T17:46:55.002Z,20.46
2018-08-13T17:49:58.191Z,20.51
2018-08-13T17:53:01.304Z,20.44
2018-08-13T17:56:04.986Z,20.26
2018-08-13T17:59:07.938Z,20.28
2018-08-13T18:02:11.358Z,20.27
2018-08-13T18:05:18.014Z,20.44
2018-08-13T18:08:21.251Z,20.32
2018-08-13T18:11:24.278Z,20.28
2018-08-13T18:14:27.329Z,20.21
2018-08-13T18:17:30.509Z,20.29
2018-08-13T18:20:33.562Z,20.14
2018-08-13T18:23:36.727Z,20.18
2018-08-13T18:26:39.834Z,20.20
2018-08-13T18:29:42.949Z,20.18
2018-08-13T18:32:45.969Z,20.14
2018-08-13T18:35:49.016Z,20.08
2018-08-13T18:38:52.138Z,20.04
2018-08-13T18:41:55.133Z,19.99
2018-08-13T18:44:58.358Z,19.94
2018-08-13T18:48:01.479Z,19.98
2018-08-13T18:51:04.603Z,19.86
2018-08-13T18:54:07.765Z,19.94
2018-08-13T18:57:10.985Z,19.93
2018-08-13T19:00:18.230Z,19.98
2018-08-13T19:03:22.209Z,19.78
2018-08-13T19:06:25.259Z,19.84
2018-08-13T19:09:28.301Z,19.82
2018-08-13T19:12:31.663Z,19.80
2018-08-13T19:15:35.105Z,19.80
2018-08-13T19:18:38.783Z,19.73
2018-08-13T19:21:41.934Z,19.76
2018-08-13T19:24:44.787Z,19.70
2018-08-13T19:27:47.957Z,19.79
2018-08-13T19:30:50.843Z,19.65
2018-08-13T19:33:54.157Z,19.85
2018-08-13T19:36:58.238Z,19.71
2018-08-13T19:40:01.938Z,19.69
2018-08-13T19:43:05.716Z,19.63
2018-08-13T19:46:09.353Z,19.79
2018-08-13T19:49:12.859Z,19.86
2018-08-13T19:52:15.921Z,19.75
2018-08-13T19:55:19.459Z,19.72
2018-08-13T19:58:22.969Z,19.67
2018-08-13T20:01:25.943Z,19.52
2018-08-13T20:04:29.281Z,19.71
2018-08-13T20:07:32.866Z,19.53
2018-08-13T20:10:36.521Z,19.49
2018-08-13T20:13:40.278Z,19.63
2018-08-13T20:16:43.845Z,19.56
2018-08-13T20:19:47.470Z,19.44
2018-08-13T20:22:51.136Z,19.53
2018-08-13T20:25:54.860Z,19.46
2018-08-13T20:28:58.782Z,19.40
2018-08-13T20:32:02.363Z,19.52
2018-08-13T20:35:05.843Z,19.42
2018-08-13T20:38:08.874Z,19.37
2018-08-13T20:41:12.402Z,19.30
2018-08-13T20:44:16.028Z,19.27
2018-08-13T20:47:19.364Z,19.33
2018-08-13T20:50:26.358Z,19.07
2018-08-13T20:53:29.950Z,18.94
2018-08-13T20:56:33.516Z,19.03
2018-08-13T20:59:37.551Z,18.93
2018-08-13T21:02:41.396Z,19.15
2018-08-13T21:05:46.259Z,18.97
2018-08-13T21:08:52.671Z,18.95
2018-08-13T21:11:56.213Z,18.84
2018-08-13T21:14:59.376Z,18.94
2018-08-13T21:18:02.526Z,18.76
2018-08-13T21:21:05.634Z,18.81
2018-08-13T21:24:08.898Z,18.86
2018-08-13T21:27:12.049Z,18.72
2018-08-13T21:30:15.218Z,18.59
2018-08-13T21:33:18.326Z,18.69
2018-08-13T21:36:21.700Z,18.78
2018-08-13T21:39:24.836Z,18.88
2018-08-13T21:42:27.941Z,18.91
2018-08-13T21:45:37.699Z,18.94
2018-08-13T21:48:40.835Z,18.89
2018-08-13T21:51:43.960Z,19.05
2018-08-13T21:54:47.150Z,19.08
2018-08-13T21:57:50.407Z,19.02
2018-08-13T22:00:59.266Z,19.12
2018-08-13T22:04:02.423Z,19.03
2018-08-13T22:07:05.550Z,19.02
2018-08-13T22:10:08.987Z,18.73
2018-08-13T22:13:12.191Z,18.92
2018-08-13T22:16:15.372Z,18.83
2018-08-13T22:19:18.451Z,18.85
2018-08-13T22:22:21.611Z,18.93
2018-08-13T22:25:30.584Z,18.72
2018-08-13T22:28:33.733Z,18.83
2018-08-13T22:31:36.942Z,18.64
2018-08-13T22:34:40.939Z,18.92
2018-08-13T22:37:44.082Z,18.80
2018-08-13T22:40:47.248Z,18.75
2018-08-13T22:43:50.351Z,18.68
2018-08-13T22:46:53.590Z,18.84
2018-08-13T22:49:56.752Z,18.56
2018-08-13T22:53:00.069Z,18.35
2018-08-13T22:56:03.285Z,18.33
2018-08-13T22:59:06.501Z,18.40
2018-08-13T23:02:09.901Z,18.66
2018-08-13T23:05:17.809Z,18.40
2018-08-13T23:08:21.007Z,18.45
2018-08-13T23:11:24.146Z,18.67
2018-08-13T23:14:27.299Z,18.67
2018-08-13T23:17:30.497Z,18.74
2018-08-13T23:20:33.590Z,18.55
2018-08-13T23:23:36.742Z,18.73
2018-08-13T23:26:39.856Z,18.74
2018-08-13T23:29:43.042Z,18.83
2018-08-13T23:32:47.116Z,18.97
2018-08-13T23:35:50.277Z,19.00
2018-08-13T23:38:53.372Z,18.96
2018-08-13T23:41:56.566Z,19.06
2018-08-13T23:44:59.737Z,18.41
2018-08-13T23:48:02.910Z,18.94
2018-08-13T23:51:06.121Z,18.79
2018-08-13T23:54:09.413Z,19.04
2018-08-13T23:57:12.525Z,19.07
